createdAt,value
2022-10-05T08:19:54.994Z,84.69
2022-10-05T08:20:54.931Z,85.50
2022-10-05T08:21:54.907Z,85.10
2022-10-05T08:22:54.941Z,84.89
2022-10-05T08:23:58.854Z,84.69
2022-10-05T08:24:54.866Z,84.79
2022-10-05T08:25:54.913Z,84.99
2022-10-05T08:26:54.855Z,84.48
2022-10-05T08:27:54.897Z,84.79
2022-10-05T08:28:54.811Z,84.39
2022-10-05T08:29:54.890Z,84.53
2022-10-05T08:30:54.853Z,85.03
2022-10-05T08:31:54.925Z,84.48
2022-10-05T08:32:54.789Z,85.10
2022-10-05T08:33:54.755Z,84.93
2022-10-05T08:34:54.744Z,84.28
2022-10-05T08:35:54.750Z,84.59
2022-10-05T08:36:54.704Z,84.48
2022-10-05T08:37:54.760Z,84.19
2022-10-05T08:38:54.684Z,84.39
2022-10-05T08:39:54.706Z,85.60
2022-10-05T08:40:54.688Z,84.48
2022-10-05T08:41:54.664Z,83.98
2022-10-05T08:42:54.673Z,84.48
2022-10-05T08:43:54.654Z,84.08
2022-10-05T08:44:54.624Z,83.37
2022-10-05T08:45:54.691Z,83.27
2022-10-05T08:46:54.605Z,83.58
2022-10-05T08:47:54.600Z,83.27
2022-10-05T08:48:54.570Z,83.98
2022-10-05T08:49:54.679Z,85.13
2022-10-05T08:50:54.549Z,84.53
2022-10-05T08:51:54.525Z,83.92
2022-10-05T08:52:54.527Z,83.76
2022-10-05T08:53:54.511Z,84.56
2022-10-05T08:54:54.489Z,84.42
2022-10-05T08:55:54.599Z,84.53
2022-10-05T08:56:54.482Z,84.33
2022-10-05T08:57:54.452Z,83.76
2022-10-05T08:58:54.430Z,83.96
2022-10-05T08:59:54.447Z,84.87
2022-10-05T09:00:54.422Z,85.27
2022-10-05T09:01:54.457Z,83.86
2022-10-05T09:02:54.434Z,83.76
2022-10-05T09:03:54.363Z,83.45
2022-10-05T09:04:54.351Z,83.96
2022-10-05T09:05:54.375Z,84.56
2022-10-05T09:06:54.331Z,84.63
2022-10-05T09:07:54.369Z,83.72
2022-10-05T09:08:54.328Z,83.31
2022-10-05T09:09:57.225Z,83.92
2022-10-05T09:10:55.307Z,83.86
2022-10-05T09:11:54.276Z,84.06
2022-10-05T09:12:54.266Z,84.16
2022-10-05T09:13:54.380Z,83.45
2022-10-05T09:15:20.534Z,83.86
2022-10-05T09:15:55.261Z,84.67
2022-10-05T09:16:54.208Z,84.36
2022-10-05T09:17:54.191Z,83.86
2022-10-05T09:18:54.178Z,84.16
2022-10-05T09:19:54.190Z,82.95
2022-10-05T09:20:54.155Z,83.15
2022-10-05T09:21:54.126Z,83.21
2022-10-05T09:22:54.134Z,83.35
2022-10-05T09:23:54.105Z,83.15
2022-10-05T09:24:54.099Z,83.96
2022-10-05T09:25:54.196Z,83.76
2022-10-05T09:26:54.071Z,84.06
2022-10-05T09:27:54.114Z,83.96
2022-10-05T09:28:54.045Z,84.12
2022-10-05T09:29:54.033Z,84.12
2022-10-05T09:30:54.031Z,83.41
2022-10-05T09:31:54.049Z,83.21
2022-10-05T09:32:53.991Z,83.41
2022-10-05T09:33:54.112Z,83.41
2022-10-05T09:34:54.051Z,83.31
2022-10-05T09:35:54.039Z,83.51
2022-10-05T09:36:54.052Z,83.01
2022-10-05T09:37:54.134Z,82.90
2022-10-05T09:38:54.024Z,82.40
2022-10-05T09:39:57.796Z,82.81
2022-10-05T09:40:54.932Z,82.50
2022-10-05T09:41:53.862Z,82.70
2022-10-05T09:42:53.849Z,83.92
2022-10-05T09:43:53.973Z,83.78
2022-10-05T09:44:53.809Z,82.60
2022-10-05T09:45:53.863Z,82.26
2022-10-05T09:46:53.780Z,82.42
2022-10-05T09:47:53.783Z,81.57
2022-10-05T09:48:53.776Z,81.68
2022-10-05T09:49:53.840Z,80.73
2022-10-05T09:50:53.735Z,79.88
2022-10-05T09:51:53.701Z,80.39
2022-10-05T09:52:53.708Z,78.17
2022-10-05T09:53:53.695Z,77.83
2022-10-05T09:54:53.672Z,78.23
2022-10-05T09:55:53.787Z,78.23
2022-10-05T09:56:53.656Z,78.30
2022-10-05T09:57:53.637Z,77.59
2022-10-05T09:58:53.637Z,77.39
2022-10-05T09:59:53.641Z,77.39
2022-10-05T10:01:03.602Z,77.39
2022-10-05T10:01:54.737Z,77.55
2022-10-05T10:02:53.722Z,77.66
2022-10-05T10:03:53.546Z,76.64
2022-10-05T10:04:53.545Z,76.84
2022-10-05T10:05:53.540Z,76.44
2022-10-05T10:06:53.517Z,77.25
2022-10-05T10:07:53.540Z,78.06
2022-10-05T10:08:53.499Z,77.25
2022-10-05T10:09:53.465Z,76.34
2022-10-05T10:10:53.472Z,76.44
2022-10-05T10:11:53.440Z,76.34
2022-10-05T10:12:53.430Z,76.64
2022-10-05T10:13:53.547Z,76.44
2022-10-05T10:14:53.411Z,76.34
2022-10-05T10:15:53.478Z,76.34
2022-10-05T10:16:53.394Z,76.54
2022-10-05T10:17:53.363Z,76.64
2022-10-05T10:18:53.342Z,76.84
2022-10-05T10:19:53.473Z,76.95
2022-10-05T10:20:53.343Z,77.75
2022-10-05T10:21:53.305Z,77.95
2022-10-05T10:22:53.315Z,76.64
2022-10-05T10:23:53.273Z,76.34
2022-10-05T10:24:53.273Z,76.84
2022-10-05T10:25:53.398Z,77.04
2022-10-05T10:27:00.282Z,77.04
2022-10-05T10:27:53.231Z,77.25
2022-10-05T10:28:53.238Z,76.54
2022-10-05T10:29:53.212Z,76.54
2022-10-05T10:30:53.250Z,76.64
2022-10-05T10:31:53.265Z,77.01
2022-10-05T10:32:53.186Z,76.31
2022-10-05T10:33:53.172Z,76.71
2022-10-05T10:34:53.159Z,76.31
2022-10-05T10:35:53.136Z,76.61
2022-10-05T10:36:53.127Z,76.10
2022-10-05T10:37:53.226Z,76.37
2022-10-05T10:38:53.119Z,76.27
2022-10-05T10:39:53.093Z,76.17
2022-10-05T10:40:53.078Z,76.67
2022-10-05T10:41:53.055Z,76.77
2022-10-05T10:42:53.043Z,76.03
2022-10-05T10:43:53.200Z,75.93
2022-10-05T10:44:53.046Z,74.93
2022-10-05T10:45:53.021Z,75.23
2022-10-05T10:46:53.396Z,75.02
2022-10-05T10:47:52.988Z,75.73
2022-10-05T10:48:52.974Z,74.32
2022-10-05T10:49:52.976Z,74.73
2022-10-05T10:50:52.939Z,74.82
2022-10-05T10:51:52.933Z,74.99
2022-10-05T10:52:52.909Z,74.89
2022-10-05T10:53:52.903Z,74.49
2022-10-05T10:54:52.911Z,73.78
2022-10-05T10:55:53.230Z,74.15
2022-10-05T10:56:52.865Z,73.85
2022-10-05T10:57:52.844Z,73.81
2022-10-05T10:58:52.840Z,73.11
2022-10-05T10:59:52.836Z,73.00
2022-10-05T11:00:52.801Z,73.27
2022-10-05T11:01:53.308Z,72.57
2022-10-05T11:02:52.831Z,71.67
2022-10-05T11:03:52.753Z,72.50
2022-10-05T11:04:52.778Z,72.87
2022-10-05T11:05:52.747Z,73.07
2022-10-05T11:06:52.738Z,72.97
2022-10-05T11:07:52.745Z,73.91
2022-10-05T11:08:52.709Z,73.21
2022-10-05T11:09:52.676Z,73.21
2022-10-05T11:10:52.666Z,73.11
2022-10-05T11:11:52.662Z,72.17
2022-10-05T11:12:52.639Z,71.87
2022-10-05T11:13:52.752Z,72.37
2022-10-05T11:14:53.412Z,72.37
2022-10-05T11:15:52.769Z,71.60
2022-10-05T11:16:52.601Z,73.50
2022-10-05T11:17:52.579Z,71.33
2022-10-05T11:18:52.558Z,71.53
2022-10-05T11:20:03.527Z,72.24
2022-10-05T11:20:53.554Z,71.80
2022-10-05T11:21:52.510Z,71.80
2022-10-05T11:22:52.501Z,72.00
2022-10-05T11:23:52.495Z,71.33
2022-10-05T11:24:52.480Z,72.50
2022-10-05T11:25:52.514Z,72.27
2022-10-05T11:26:52.467Z,72.13
2022-10-05T11:27:52.434Z,71.83
2022-10-05T11:28:52.438Z,71.03
2022-10-05T11:29:52.410Z,71.40
2022-10-05T11:30:52.425Z,70.89
2022-10-05T11:31:52.877Z,71.00
2022-10-05T11:32:52.378Z,71.50
2022-10-05T11:33:52.371Z,70.96
2022-10-05T11:34:52.370Z,70.46
2022-10-05T11:35:52.329Z,70.36
2022-10-05T11:36:52.316Z,69.76
2022-10-05T11:37:52.431Z,69.53
2022-10-05T11:38:52.300Z,70.63
2022-10-05T11:39:52.268Z,71.73
2022-10-05T11:40:52.272Z,69.92
2022-10-05T11:41:52.247Z,71.13
2022-10-05T11:42:52.241Z,71.43
2022-10-05T11:43:52.353Z,70.69
2022-10-05T11:44:52.208Z,69.49
2022-10-05T11:45:52.203Z,68.55
2022-10-05T11:46:52.246Z,68.35
2022-10-05T11:47:52.172Z,69.16
2022-10-05T11:48:52.174Z,68.96
2022-10-05T11:49:52.251Z,69.26
2022-10-05T11:50:52.131Z,69.82
2022-10-05T11:51:52.262Z,70.43
2022-10-05T11:52:52.115Z,71.66
2022-10-05T11:53:52.106Z,69.73
2022-10-05T11:55:09.837Z,69.62
2022-10-05T11:55:53.184Z,69.82
2022-10-05T11:56:54.559Z,70.03
2022-10-05T11:57:52.037Z,70.43
2022-10-05T11:58:52.025Z,70.79
2022-10-05T11:59:52.019Z,69.69
2022-10-05T12:00:51.996Z,68.82
2022-10-05T12:01:52.019Z,68.92
2022-10-05T12:02:52.046Z,69.89
2022-10-05T12:03:52.023Z,68.59
2022-10-05T12:04:51.961Z,69.42
2022-10-05T12:05:51.928Z,68.92
2022-10-05T12:06:52.221Z,69.73
2022-10-05T12:07:51.950Z,69.53
2022-10-05T12:08:51.902Z,68.62
2022-10-05T12:09:51.869Z,69.79
2022-10-05T12:10:51.861Z,69.89
2022-10-05T12:11:56.883Z,68.69
2022-10-05T12:12:52.891Z,68.49
2022-10-05T12:13:51.833Z,69.19
2022-10-05T12:14:51.825Z,69.26
2022-10-05T12:15:51.809Z,68.76
2022-10-05T12:16:51.797Z,69.06
2022-10-05T12:17:51.763Z,69.35
2022-10-05T12:18:51.863Z,68.15
2022-10-05T12:19:51.758Z,67.85
2022-10-05T12:20:51.734Z,68.35
2022-10-05T12:21:51.727Z,68.85
2022-10-05T12:22:51.719Z,68.76
2022-10-05T12:23:51.686Z,68.46
2022-10-05T12:24:51.795Z,69.35
2022-10-05T12:25:51.690Z,69.16
2022-10-05T12:26:52.350Z,70.66
2022-10-05T12:27:51.637Z,67.85
2022-10-05T12:28:51.631Z,70.56
2022-10-05T12:29:51.606Z,69.96
2022-10-05T12:30:51.619Z,69.56
2022-10-05T12:31:51.591Z,69.46
2022-10-05T12:32:51.568Z,69.12
2022-10-05T12:33:51.562Z,69.86
2022-10-05T12:34:51.557Z,67.25
2022-10-05T12:35:51.521Z,68.46
2022-10-05T12:37:06.485Z,68.69
2022-10-05T12:37:52.500Z,68.89
2022-10-05T12:38:51.482Z,68.19
2022-10-05T12:39:51.508Z,68.49
2022-10-05T12:40:51.477Z,69.35
2022-10-05T12:41:51.445Z,68.55
2022-10-05T12:42:51.553Z,68.96
2022-10-05T12:43:51.435Z,69.02
2022-10-05T12:44:51.404Z,67.72
2022-10-05T12:45:51.447Z,68.22
2022-10-05T12:46:51.397Z,67.49
2022-10-05T12:47:53.760Z,67.02
2022-10-05T12:48:51.400Z,67.25
2022-10-05T12:49:51.335Z,67.35
2022-10-05T12:50:51.338Z,67.58
2022-10-05T12:51:51.321Z,68.89
2022-10-05T12:52:51.299Z,69.49
2022-10-05T12:53:51.300Z,70.59
2022-10-05T12:54:51.312Z,69.79
2022-10-05T12:55:51.257Z,69.19
2022-10-05T12:56:51.239Z,69.49
2022-10-05T12:57:51.251Z,68.62
2022-10-05T12:58:51.234Z,69.62
2022-10-05T12:59:51.208Z,69.73
2022-10-05T13:00:51.275Z,68.65
2022-10-05T13:01:51.221Z,69.56
2022-10-05T13:02:51.162Z,70.66
2022-10-05T13:03:51.167Z,70.16
2022-10-05T13:04:51.132Z,69.76
2022-10-05T13:05:51.146Z,69.85
2022-10-05T13:06:51.234Z,68.65
2022-10-05T13:07:51.102Z,69.76
2022-10-05T13:08:51.125Z,69.85
2022-10-05T13:09:51.082Z,70.16
2022-10-05T13:10:51.055Z,69.15
2022-10-05T13:11:51.271Z,69.22
2022-10-05T13:12:51.080Z,70.53
2022-10-05T13:13:51.023Z,69.22
2022-10-05T13:14:50.997Z,68.79
2022-10-05T13:15:51.060Z,68.49
2022-10-05T13:16:54.815Z,69.39
2022-10-05T13:17:50.982Z,68.59
2022-10-05T13:18:50.991Z,68.08
2022-10-05T13:19:50.947Z,69.69
2022-10-05T13:20:50.962Z,68.76
2022-10-05T13:21:50.920Z,68.85
2022-10-05T13:22:50.902Z,67.65
2022-10-05T13:23:55.092Z,67.15
2022-10-05T13:24:51.979Z,66.62
2022-10-05T13:25:50.877Z,65.75
2022-10-05T13:26:50.854Z,63.06
2022-10-05T13:28:07.119Z,61.74
2022-10-05T13:28:50.822Z,59.00
2022-10-05T13:51:02.815Z,57.39
2022-10-05T13:54:40.058Z,47.84
2022-10-05T13:54:44.764Z,49.40
2022-10-05T13:58:54.530Z,50.18
2022-10-05T13:58:59.236Z,48.43
2022-10-05T13:59:59.236Z,50.18
2022-10-05T14:15:32.299Z,50.18
2022-10-05T14:16:47.564Z,48.93
2022-10-05T14:16:52.392Z,47.81
2022-10-05T14:19:10.851Z,47.42
2022-10-05T14:19:15.555Z,47.38
2022-10-05T15:46:22.575Z,49.47
2022-10-05T15:46:31.185Z,51.60
2022-10-05T15:47:27.752Z,51.70
2022-10-05T15:48:27.285Z,51.82
2022-10-05T15:49:27.274Z,52.34
2022-10-05T15:50:27.250Z,52.99
2022-10-05T15:51:27.493Z,54.53
2022-10-05T15:52:27.225Z,55.98
2022-10-05T15:53:27.222Z,58.15
2022-10-05T15:54:27.216Z,59.53
2022-10-05T15:55:27.177Z,60.99
2022-10-05T15:56:27.162Z,60.99
2022-10-05T15:57:27.398Z,61.19
2022-10-05T15:58:27.157Z,61.89
2022-10-05T15:59:27.795Z,61.29
2022-10-05T16:00:27.119Z,62.52
2022-10-05T16:01:27.158Z,62.85
2022-10-05T16:02:27.149Z,64.12
2022-10-05T16:03:27.216Z,65.48
2022-10-05T16:04:29.295Z,66.61
2022-10-05T16:05:27.504Z,67.52
2022-10-05T16:06:27.064Z,67.95
2022-10-05T16:07:28.683Z,68.59
2022-10-05T16:08:27.032Z,69.42
2022-10-05T16:09:27.037Z,70.36
2022-10-05T16:10:27.974Z,71.00
2022-10-05T16:11:34.397Z,71.40
2022-10-05T16:12:26.952Z,71.63
2022-10-05T16:13:27.246Z,72.14
2022-10-05T16:14:26.923Z,72.54
2022-10-05T16:15:27.041Z,72.77
2022-10-05T16:16:26.966Z,72.77
2022-10-05T16:17:26.925Z,72.88
2022-10-05T16:18:26.909Z,73.48
2022-10-05T16:19:26.897Z,73.61
2022-10-05T16:20:26.889Z,73.92
2022-10-05T16:21:26.894Z,74.22
2022-10-05T16:22:26.845Z,74.32
2022-10-05T16:23:26.825Z,74.42
2022-10-05T16:24:26.802Z,75.06
2022-10-05T16:25:26.831Z,74.96
2022-10-05T16:26:26.768Z,75.26
2022-10-05T16:27:26.885Z,75.16
2022-10-05T16:28:27.289Z,75.67
2022-10-05T16:29:26.720Z,75.90
2022-10-05T16:30:26.733Z,76.00
2022-10-05T16:31:26.721Z,76.31
2022-10-05T16:32:30.581Z,76.61
2022-10-05T16:33:26.711Z,76.91
2022-10-05T16:34:26.676Z,76.91
2022-10-05T16:35:26.651Z,77.04
2022-10-05T16:36:26.655Z,77.35
2022-10-05T16:37:26.635Z,77.15
2022-10-05T16:38:26.643Z,77.25
2022-10-05T16:39:26.713Z,77.35
2022-10-05T16:40:26.598Z,77.45
2022-10-05T16:41:26.573Z,77.66
2022-10-05T16:42:26.567Z,77.89
2022-10-05T16:43:26.577Z,77.89
2022-10-05T16:44:26.532Z,78.09
2022-10-05T16:45:26.549Z,77.99
2022-10-05T16:46:27.933Z,78.39
2022-10-05T16:47:27.675Z,78.39
2022-10-05T16:48:26.939Z,78.59
2022-10-05T16:49:26.461Z,78.84
2022-10-05T16:50:26.461Z,79.04
2022-10-05T16:51:26.561Z,79.24
2022-10-05T16:52:26.427Z,79.24
2022-10-05T16:53:26.405Z,79.54
2022-10-05T16:54:26.412Z,79.74
2022-10-05T16:55:26.395Z,79.85
2022-10-05T16:56:26.375Z,79.88
2022-10-05T16:57:26.493Z,80.19
2022-10-05T16:58:26.408Z,80.19
2022-10-05T16:59:26.327Z,80.29
2022-10-05T17:00:27.121Z,80.29
2022-10-05T17:01:26.383Z,80.29
2022-10-05T17:02:26.338Z,80.35
2022-10-05T17:03:26.325Z,80.45
2022-10-05T17:04:26.262Z,80.45
2022-10-05T17:05:26.265Z,80.49
2022-10-05T17:06:26.233Z,80.90
2022-10-05T17:07:26.231Z,80.90
2022-10-05T17:08:26.838Z,80.90
2022-10-05T17:09:26.215Z,80.99
2022-10-05T17:10:26.200Z,81.30
2022-10-05T17:11:26.180Z,81.20
2022-10-05T17:12:26.154Z,81.30
2022-10-05T17:13:26.150Z,81.10
2022-10-05T17:14:26.133Z,81.40
2022-10-05T17:15:26.271Z,81.70
2022-10-05T17:16:26.120Z,81.70
2022-10-05T17:17:26.088Z,81.70
2022-10-05T17:18:26.443Z,81.70
2022-10-05T17:19:26.072Z,81.70
2022-10-05T17:20:26.047Z,81.70
2022-10-05T17:21:26.070Z,81.90
2022-10-05T17:22:26.020Z,82.01
2022-10-05T17:23:26.007Z,82.01
2022-10-05T17:24:26.014Z,82.01
2022-10-05T17:25:25.994Z,82.21
2022-10-05T17:26:25.975Z,81.90
2022-10-05T17:27:26.067Z,81.90
2022-10-05T17:28:26.250Z,81.90
2022-10-05T17:29:25.934Z,82.21
2022-10-05T17:30:25.935Z,82.21
2022-10-05T17:31:26.008Z,82.21
2022-10-05T17:32:25.892Z,82.31
2022-10-05T17:33:25.937Z,82.21
2022-10-05T17:34:25.863Z,82.01
2022-10-05T17:35:25.853Z,82.10
2022-10-05T17:36:25.860Z,82.01
2022-10-05T17:37:25.887Z,82.21
2022-10-05T17:38:26.015Z,81.80
2022-10-05T17:39:25.938Z,81.80
2022-10-05T17:40:28.510Z,81.50
2022-10-05T17:41:27.229Z,81.30
2022-10-05T17:42:25.789Z,81.16
2022-10-05T17:43:25.750Z,80.65
2022-10-05T17:44:25.747Z,80.55
2022-10-05T17:45:25.862Z,80.45
2022-10-05T17:46:25.743Z,80.35
2022-10-05T17:47:25.688Z,80.05
2022-10-05T17:48:26.210Z,79.81
2022-10-05T17:49:25.664Z,79.50
2022-10-05T17:50:25.662Z,79.41
2022-10-05T17:51:25.684Z,79.41
2022-10-05T17:52:25.629Z,79.30
2022-10-05T17:53:25.624Z,79.00
2022-10-05T17:54:25.599Z,78.90
2022-10-05T17:55:25.587Z,78.80
2022-10-05T17:56:25.594Z,78.59
2022-10-05T17:57:25.685Z,78.59
2022-10-05T17:58:25.795Z,78.09
2022-10-05T17:59:25.543Z,78.36
2022-10-05T18:00:25.535Z,78.26
2022-10-05T18:01:25.520Z,78.16
2022-10-05T18:02:25.523Z,78.36
2022-10-05T18:03:25.508Z,78.26
2022-10-05T18:04:25.465Z,78.26
2022-10-05T18:05:25.458Z,78.26
2022-10-05T18:06:25.446Z,78.26
2022-10-05T18:07:25.435Z,78.36
2022-10-05T18:08:30.278Z,78.76
2022-10-05T18:09:26.418Z,78.46
2022-10-05T18:10:25.430Z,78.36
2022-10-05T18:11:25.381Z,78.36
2022-10-05T18:12:25.361Z,78.06
2022-10-05T18:13:25.796Z,78.16
2022-10-05T18:14:25.342Z,78.09
2022-10-05T18:15:25.432Z,78.30
2022-10-05T18:16:25.322Z,78.30
2022-10-05T18:17:28.394Z,78.50
2022-10-05T18:18:25.519Z,78.70
2022-10-05T18:19:25.275Z,79.21
2022-10-05T18:20:25.258Z,79.74
2022-10-05T18:21:25.372Z,79.54
2022-10-05T18:22:25.223Z,79.74
2022-10-05T18:23:25.202Z,79.85
2022-10-05T18:24:25.218Z,79.94
2022-10-05T18:25:25.191Z,80.05
2022-10-05T18:26:25.198Z,80.05
2022-10-05T18:27:29.897Z,79.94
2022-10-05T18:28:26.340Z,80.05
2022-10-05T18:29:25.124Z,80.05
2022-10-05T18:30:25.147Z,79.94
2022-10-05T18:31:25.147Z,79.94
2022-10-05T18:32:25.094Z,80.15
2022-10-05T18:33:25.230Z,80.25
2022-10-05T18:34:25.087Z,80.45
2022-10-05T18:35:25.051Z,80.45
2022-10-05T18:36:25.050Z,80.85
2022-10-05T18:37:25.026Z,80.85
2022-10-05T18:38:25.346Z,80.76
2022-10-05T18:39:25.041Z,80.76
2022-10-05T18:40:24.994Z,80.55
2022-10-05T18:41:24.981Z,80.76
2022-10-05T18:42:24.961Z,80.65
2022-10-05T18:43:24.951Z,80.76
2022-10-05T18:44:24.952Z,80.76
2022-10-05T18:45:25.065Z,80.76
2022-10-05T18:46:24.944Z,80.76
2022-10-05T18:47:24.891Z,81.16
2022-10-05T18:48:25.206Z,81.26
2022-10-05T18:49:25.895Z,81.16
2022-10-05T18:50:24.885Z,81.26
2022-10-05T18:51:24.983Z,81.16
2022-10-05T18:52:24.822Z,81.36
2022-10-05T18:53:24.826Z,81.36
2022-10-05T18:54:24.814Z,81.56
2022-10-05T18:55:24.852Z,81.56
2022-10-05T18:56:24.788Z,81.56
2022-10-05T18:57:24.944Z,81.80
2022-10-05T18:58:25.049Z,82.10
2022-10-05T18:59:25.270Z,82.31
2022-10-05T19:00:24.832Z,82.01
2022-10-05T19:01:24.817Z,82.31
2022-10-05T19:02:24.791Z,82.61
2022-10-05T19:03:24.821Z,82.61
2022-10-05T19:04:24.671Z,83.05
2022-10-05T19:05:46.394Z,83.12
2022-10-05T19:06:25.647Z,83.12
2022-10-05T19:07:24.620Z,83.01
2022-10-05T19:08:24.997Z,83.32
2022-10-05T19:09:24.633Z,82.91
2022-10-05T19:10:24.645Z,82.81
2022-10-05T19:11:24.573Z,83.01
2022-10-05T19:12:24.555Z,82.67
2022-10-05T19:13:24.747Z,82.67
2022-10-05T19:14:24.531Z,82.07
2022-10-05T19:15:24.542Z,81.32
2022-10-05T19:16:24.544Z,79.87
2022-10-05T19:17:24.490Z,79.93
2022-10-05T19:18:25.003Z,79.83
2022-10-05T19:19:30.683Z,80.13
2022-10-05T19:20:25.483Z,80.24
2022-10-05T19:21:24.557Z,79.93
2022-10-05T19:22:24.417Z,80.04
2022-10-05T19:23:24.722Z,79.43
2022-10-05T19:24:24.412Z,78.72
2022-10-05T19:25:24.382Z,78.69
2022-10-05T19:26:24.508Z,78.49
2022-10-05T19:27:24.370Z,78.49
2022-10-05T19:28:24.650Z,78.28
2022-10-05T19:29:24.338Z,78.28
2022-10-05T19:30:24.306Z,78.19
2022-10-05T19:31:24.362Z,78.52
2022-10-05T19:32:24.321Z,77.48
2022-10-05T19:33:24.290Z,76.87
2022-10-05T19:34:24.258Z,77.08
2022-10-05T19:35:24.238Z,77.48
2022-10-05T19:36:24.243Z,77.98
2022-10-05T19:37:24.218Z,77.88
2022-10-05T19:38:24.334Z,77.98
2022-10-05T19:39:24.204Z,77.58
2022-10-05T19:40:24.180Z,77.48
2022-10-05T19:41:24.174Z,76.97
2022-10-05T19:42:24.222Z,76.17
2022-10-05T19:43:24.227Z,76.57
2022-10-05T19:44:24.255Z,76.27
2022-10-05T19:45:24.114Z,76.67
2022-10-05T19:46:24.143Z,76.37
2022-10-05T19:47:24.136Z,76.47
2022-10-05T19:48:24.064Z,76.40
2022-10-05T19:49:24.062Z,76.51
2022-10-05T19:50:24.156Z,76.91
2022-10-05T19:51:24.047Z,76.95
2022-10-05T19:52:24.020Z,77.15
2022-10-05T19:53:24.009Z,77.25
2022-10-05T19:54:23.976Z,77.35
2022-10-05T19:55:23.984Z,77.04
2022-10-05T19:56:24.001Z,77.55
2022-10-05T19:57:23.949Z,77.25
2022-10-05T19:58:23.948Z,77.35
2022-10-05T19:59:23.930Z,77.04
2022-10-05T20:00:23.904Z,77.35
2022-10-05T20:01:23.954Z,77.66
2022-10-05T20:02:23.953Z,77.04
2022-10-05T20:03:23.869Z,77.66
2022-10-05T20:04:23.854Z,77.45
2022-10-05T20:05:23.852Z,77.55
2022-10-05T20:06:23.820Z,77.45
2022-10-05T20:07:23.810Z,77.55
2022-10-05T20:08:24.164Z,77.89
2022-10-05T20:09:23.787Z,78.19
2022-10-05T20:10:23.797Z,78.19
2022-10-05T20:11:23.776Z,78.53
2022-10-05T20:12:23.741Z,78.84
2022-10-05T20:13:23.756Z,79.74
2022-10-05T20:14:23.853Z,79.54
2022-10-05T20:15:23.714Z,79.48
2022-10-05T20:16:23.787Z,79.14
2022-10-05T20:17:23.686Z,78.84
2022-10-05T20:18:23.668Z,79.04
2022-10-05T20:19:23.669Z,79.44
2022-10-05T20:20:23.745Z,79.44
2022-10-05T20:21:23.629Z,79.44
2022-10-05T20:22:23.596Z,79.74
2022-10-05T20:23:23.607Z,79.44
2022-10-05T20:24:23.589Z,79.54
2022-10-05T20:25:23.569Z,79.54
2022-10-05T20:26:23.689Z,79.74
2022-10-05T20:27:23.550Z,79.14
2022-10-05T20:28:23.535Z,79.14
2022-10-05T20:29:23.521Z,79.34
2022-10-05T20:30:23.498Z,79.54
2022-10-05T20:31:23.506Z,79.34
2022-10-05T20:32:26.425Z,79.54
2022-10-05T20:33:24.460Z,78.70
2022-10-05T20:34:23.453Z,78.90
2022-10-05T20:35:23.444Z,79.21
2022-10-05T20:36:23.413Z,78.80
2022-10-05T20:37:23.414Z,79.21
2022-10-05T20:38:23.436Z,79.21
2022-10-05T20:39:23.385Z,78.50
2022-10-05T20:40:23.352Z,78.59
2022-10-05T20:41:23.357Z,78.80
2022-10-05T20:42:23.330Z,79.41
2022-10-05T20:43:23.313Z,79.30
2022-10-05T20:44:23.345Z,79.41
2022-10-05T20:45:23.293Z,79.00
2022-10-05T20:46:23.324Z,78.26
2022-10-05T20:47:23.277Z,78.26
2022-10-05T20:48:23.245Z,78.36
2022-10-05T20:49:23.257Z,78.36
2022-10-05T20:50:24.086Z,78.16
2022-10-05T20:51:23.226Z,77.55
2022-10-05T20:52:23.237Z,77.72
2022-10-05T20:53:23.198Z,78.02
2022-10-05T20:54:23.168Z,78.56
2022-10-05T20:55:23.172Z,78.76
2022-10-05T20:56:23.183Z,79.06
2022-10-05T20:57:23.138Z,79.47
2022-10-05T20:58:23.123Z,78.76
2022-10-05T20:59:23.120Z,78.66
2022-10-05T21:00:23.090Z,78.96
2022-10-05T21:01:23.139Z,78.66
2022-10-05T21:02:23.169Z,78.76
2022-10-05T21:03:23.041Z,78.76
2022-10-05T21:04:23.115Z,78.46
2022-10-05T21:05:23.075Z,79.06
2022-10-05T21:06:23.015Z,78.86
2022-10-05T21:07:23.006Z,78.96
2022-10-05T21:08:23.082Z,78.96
2022-10-05T21:09:22.963Z,78.76
2022-10-05T21:10:22.965Z,78.76
2022-10-05T21:11:22.956Z,78.76
2022-10-05T21:12:22.923Z,78.86
2022-10-05T21:13:22.929Z,79.16
2022-10-05T21:14:23.015Z,79.47
2022-10-05T21:15:22.884Z,78.86
2022-10-05T21:16:23.018Z,79.36
2022-10-05T21:17:22.860Z,79.16
2022-10-05T21:18:22.851Z,78.32
2022-10-05T21:19:22.849Z,78.32
2022-10-05T21:20:22.928Z,78.52
2022-10-05T21:21:22.819Z,78.92
2022-10-05T21:22:22.790Z,78.72
2022-10-05T21:23:22.778Z,78.72
2022-10-05T21:24:22.773Z,79.27
2022-10-05T21:25:22.756Z,79.47
2022-10-05T21:26:22.864Z,78.96
2022-10-05T21:27:22.754Z,79.23
2022-10-05T21:28:22.756Z,79.03
2022-10-05T21:29:22.734Z,78.92
2022-10-05T21:30:22.680Z,78.92
2022-10-05T21:31:22.714Z,78.52
2022-10-05T21:32:22.785Z,78.52
2022-10-05T21:33:22.641Z,78.63
2022-10-05T21:34:22.637Z,78.63
2022-10-05T21:35:22.630Z,78.63
2022-10-05T21:36:24.691Z,78.92
2022-10-05T21:37:22.599Z,78.83
2022-10-05T21:38:22.694Z,78.63
2022-10-05T21:39:22.563Z,78.83
2022-10-05T21:40:22.557Z,78.83
2022-10-05T21:41:22.557Z,78.32
2022-10-05T21:42:23.575Z,78.42
2022-10-05T21:43:22.504Z,78.72
2022-10-05T21:44:22.646Z,78.42
2022-10-05T21:45:22.487Z,78.52
2022-10-05T21:46:22.481Z,78.52
2022-10-05T21:47:22.471Z,78.22
2022-10-05T21:48:22.437Z,78.83
2022-10-05T21:49:22.441Z,78.83
2022-10-05T21:50:22.445Z,79.03
2022-10-05T21:51:22.401Z,78.83
2022-10-05T21:52:22.401Z,78.72
2022-10-05T21:53:22.378Z,78.72
2022-10-05T21:54:22.389Z,78.92
2022-10-05T21:55:22.362Z,78.42
2022-10-05T21:56:22.451Z,78.08
2022-10-05T21:57:22.324Z,77.48
2022-10-05T21:58:22.322Z,77.48
2022-10-05T21:59:22.316Z,78.08
2022-10-05T22:00:22.294Z,78.08
2022-10-05T22:01:23.105Z,77.98
2022-10-05T22:02:22.282Z,78.19
2022-10-05T22:03:22.291Z,78.63
2022-10-05T22:04:22.244Z,78.92
2022-10-05T22:05:22.225Z,78.42
2022-10-05T22:06:22.216Z,79.03
2022-10-05T22:07:22.207Z,78.63
2022-10-05T22:08:22.281Z,79.23
2022-10-05T22:09:22.179Z,79.43
2022-10-05T22:10:22.155Z,79.33
2022-10-05T22:11:22.135Z,79.13
2022-10-05T22:12:22.137Z,79.03
2022-10-05T22:13:22.128Z,78.92
2022-10-05T22:14:22.127Z,78.83
2022-10-05T22:15:22.085Z,79.03
2022-10-05T22:16:22.156Z,78.72
2022-10-05T22:17:22.057Z,78.83
2022-10-05T22:18:22.050Z,78.89
2022-10-05T22:19:22.041Z,78.08
2022-10-05T22:20:22.049Z,77.98
2022-10-05T22:21:22.025Z,78.39
2022-10-05T22:22:21.981Z,78.69
2022-10-05T22:23:21.982Z,78.99
2022-10-05T22:24:21.972Z,78.89
2022-10-05T22:25:21.948Z,78.89
2022-10-05T22:26:22.056Z,78.39
2022-10-05T22:27:21.935Z,78.49
2022-10-05T22:28:21.961Z,78.28
2022-10-05T22:29:21.907Z,78.08
2022-10-05T22:30:21.872Z,78.28
2022-10-05T22:31:21.914Z,78.39
2022-10-05T22:32:21.979Z,78.39
2022-10-05T22:33:21.833Z,78.39
2022-10-05T22:34:21.837Z,78.89
2022-10-05T22:35:21.829Z,78.79
2022-10-05T22:36:21.797Z,78.59
2022-10-05T22:37:21.797Z,78.39
2022-10-05T22:38:21.885Z,77.95
2022-10-05T22:39:21.755Z,78.15
2022-10-05T22:40:21.758Z,77.75
2022-10-05T22:41:21.734Z,77.95
2022-10-05T22:42:21.722Z,78.45
2022-10-05T22:43:21.720Z,78.79
2022-10-05T22:44:21.808Z,78.69
2022-10-05T22:45:21.679Z,78.59
2022-10-05T22:46:21.707Z,78.49
2022-10-05T22:47:21.673Z,78.69
2022-10-05T22:48:21.637Z,78.59
2022-10-05T22:49:21.641Z,78.79
2022-10-05T22:50:21.761Z,78.99
2022-10-05T22:51:21.601Z,79.60
2022-10-05T22:52:21.595Z,81.10
2022-10-05T22:53:21.569Z,82.45
2022-10-05T22:54:21.566Z,83.30
2022-10-05T22:55:21.564Z,82.13
2022-10-05T22:56:21.645Z,82.27
2022-10-05T22:57:21.554Z,84.03
2022-10-05T22:58:25.989Z,85.78
2022-10-05T23:00:56.466Z,87.84
2022-10-05T23:01:32.734Z,88.90
2022-10-05T23:02:31.680Z,88.29
2022-10-05T23:03:31.625Z,86.61
2022-10-05T23:04:31.593Z,86.55
2022-10-05T23:05:31.595Z,85.88
2022-10-05T23:06:31.564Z,86.29
2022-10-05T23:07:31.683Z,86.79
2022-10-05T23:08:31.870Z,85.99
2022-10-05T23:09:31.525Z,86.39
2022-10-05T23:10:31.517Z,85.78
2022-10-05T23:11:31.516Z,85.58
2022-10-05T23:12:31.484Z,85.58
2022-10-05T23:14:44.958Z,84.06
2022-10-05T23:15:46.897Z,83.96
2022-10-05T23:16:42.710Z,83.82
2022-10-05T23:17:43.443Z,84.67
2022-10-05T23:18:42.737Z,84.77